createdAt,value
2023-01-18T00:02:01.635Z,5.32
2023-01-18T00:04:36.550Z,10.75
2023-01-18T00:07:10.437Z,9.43
2023-01-18T00:09:43.875Z,6.32
2023-01-18T00:12:17.391Z,4.25
2023-01-18T00:14:50.859Z,5.15
2023-01-18T00:17:24.788Z,6.20
2023-01-18T00:19:59.844Z,9.70
2023-01-18T00:22:33.337Z,5.53
2023-01-18T00:25:07.582Z,6.22
2023-01-18T00:27:41.934Z,4.13
2023-01-18T00:30:17.531Z,8.52
2023-01-18T00:32:53.879Z,7.82
2023-01-18T00:35:29.087Z,7.30
2023-01-18T00:38:02.869Z,6.90
2023-01-18T00:40:36.359Z,7.32
2023-01-18T00:43:27.869Z,8.73
2023-01-18T00:46:01.364Z,6.82
2023-01-18T00:48:35.421Z,8.10
2023-01-18T00:51:11.735Z,7.82
2023-01-18T00:53:45.779Z,7.35
2023-01-18T00:56:21.870Z,5.15
2023-01-18T00:58:55.336Z,4.95
2023-01-18T01:01:29.122Z,5.18
2023-01-18T01:04:20.043Z,5.60
2023-01-18T01:06:54.956Z,5.35
2023-01-18T01:09:31.355Z,7.13
2023-01-18T01:12:22.264Z,6.43
2023-01-18T01:15:14.265Z,5.60
2023-01-18T01:18:05.277Z,4.80
2023-01-18T01:20:56.042Z,5.25
2023-01-18T01:23:48.268Z,5.18
2023-01-18T01:26:22.276Z,4.30
2023-01-18T01:28:56.620Z,4.78
2023-01-18T01:31:30.076Z,3.78
2023-01-18T01:34:03.590Z,4.53
2023-01-18T01:36:37.372Z,2.95
2023-01-18T01:39:12.304Z,4.05
2023-01-18T01:41:45.968Z,5.13
2023-01-18T01:44:52.893Z,4.82
2023-01-18T01:47:37.576Z,4.97
2023-01-18T01:50:22.550Z,5.50
2023-01-18T01:52:58.778Z,4.13
2023-01-18T01:55:36.781Z,4.65
2023-01-18T01:58:15.387Z,4.38
2023-01-18T02:00:49.119Z,4.43
2023-01-18T02:03:25.589Z,6.18
2023-01-18T02:06:03.642Z,3.88
2023-01-18T02:08:37.441Z,2.72
2023-01-18T02:11:12.847Z,1.85
2023-01-18T02:13:46.539Z,1.50
2023-01-18T02:16:31.619Z,1.73
2023-01-18T02:19:17.359Z,1.88
2023-01-18T02:21:55.638Z,1.17
2023-01-18T02:25:00.629Z,1.27
2023-01-18T02:27:43.604Z,1.10
2023-01-18T02:30:26.925Z,1.08
2023-01-18T02:33:06.644Z,1.02
2023-01-18T02:35:48.710Z,1.60
2023-01-18T02:38:25.450Z,1.40
2023-01-18T02:41:10.162Z,2.58
2023-01-18T02:44:03.276Z,1.70
2023-01-18T02:46:40.434Z,2.00
2023-01-18T02:49:27.310Z,2.35
2023-01-18T02:52:02.913Z,1.55
2023-01-18T02:54:38.856Z,1.50
2023-01-18T02:57:15.881Z,1.20
2023-01-18T02:59:55.171Z,1.65
2023-01-18T03:02:30.233Z,1.45
2023-01-18T03:05:04.590Z,1.35
2023-01-18T03:07:44.046Z,1.10
2023-01-18T03:10:18.669Z,1.20
2023-01-18T03:13:00.786Z,1.30
2023-01-18T03:15:44.238Z,1.10
2023-01-18T03:18:26.505Z,1.33
2023-01-18T03:21:00.203Z,0.80
2023-01-18T03:23:42.534Z,1.33
2023-01-18T03:26:20.272Z,1.90
2023-01-18T03:29:14.796Z,1.55
2023-01-18T03:32:08.319Z,1.13
2023-01-18T03:34:50.255Z,1.27
2023-01-18T03:37:30.604Z,1.00
2023-01-18T03:40:07.454Z,1.75
2023-01-18T03:42:46.213Z,2.90
2023-01-18T03:45:26.406Z,5.75
2023-01-18T03:48:01.549Z,4.18
2023-01-18T03:50:45.339Z,3.42
2023-01-18T03:53:28.981Z,3.72
2023-01-18T03:56:06.321Z,3.63
2023-01-18T03:58:42.416Z,4.32
2023-01-18T04:01:16.126Z,4.30
2023-01-18T04:03:49.623Z,3.75
2023-01-18T04:06:25.993Z,3.08
2023-01-18T04:08:59.812Z,3.35
2023-01-18T04:11:33.306Z,3.63
2023-01-18T04:14:07.228Z,4.43
2023-01-18T04:16:41.011Z,3.85
2023-01-18T04:19:14.646Z,3.65
2023-01-18T04:21:49.521Z,3.47
2023-01-18T04:24:22.989Z,3.00
2023-01-18T04:26:56.845Z,4.25
2023-01-18T04:29:30.487Z,3.72
2023-01-18T04:32:05.904Z,4.03
2023-01-18T04:34:39.404Z,3.25
2023-01-18T04:37:14.576Z,3.83
2023-01-18T04:39:48.085Z,4.03
2023-01-18T04:42:21.730Z,3.60
2023-01-18T04:44:55.372Z,3.75
2023-01-18T04:47:29.632Z,5.28
2023-01-18T04:50:03.282Z,3.80
2023-01-18T04:52:38.158Z,4.00
2023-01-18T04:55:16.064Z,4.38
2023-01-18T04:57:56.050Z,4.57
2023-01-18T05:00:29.884Z,4.00
2023-01-18T05:03:03.364Z,4.70
2023-01-18T05:05:36.897Z,4.78
2023-01-18T05:08:12.106Z,4.15
2023-01-18T05:10:45.578Z,5.18
2023-01-18T05:13:19.207Z,4.85
2023-01-18T05:15:52.759Z,5.15
2023-01-18T05:18:26.532Z,4.00
2023-01-18T05:21:00.447Z,4.50
2023-01-18T05:23:35.320Z,4.30
2023-01-18T05:26:15.396Z,5.10
2023-01-18T05:28:49.339Z,5.25
2023-01-18T05:31:23.137Z,4.38
2023-01-18T05:33:57.770Z,6.05
2023-01-18T05:36:31.318Z,4.93
2023-01-18T05:39:06.869Z,5.63
2023-01-18T05:41:40.326Z,6.60
2023-01-18T05:44:14.278Z,9.27
2023-01-18T05:46:47.719Z,25.85
2023-01-18T05:49:21.337Z,22.08
2023-01-18T05:51:54.964Z,16.33
2023-01-18T05:54:29.851Z,18.50
2023-01-18T05:57:03.540Z,17.52
2023-01-18T05:59:37.211Z,13.00
2023-01-18T06:02:11.100Z,11.85
2023-01-18T06:04:44.769Z,9.57
2023-01-18T06:07:18.455Z,10.50
2023-01-18T06:09:53.353Z,17.23
2023-01-18T06:12:26.854Z,12.73
2023-01-18T06:15:00.617Z,8.77
2023-01-18T06:17:34.450Z,9.80
2023-01-18T06:20:09.133Z,9.80
2023-01-18T06:22:42.626Z,10.27
2023-01-18T06:25:18.011Z,12.18
2023-01-18T06:27:51.643Z,12.23
2023-01-18T06:30:25.459Z,15.70
2023-01-18T06:33:03.657Z,12.45
2023-01-18T06:35:38.459Z,14.15
2023-01-18T06:38:12.495Z,15.32
2023-01-18T06:40:47.366Z,13.93
2023-01-18T06:43:20.837Z,12.50
2023-01-18T06:45:55.726Z,15.25
2023-01-18T06:48:29.869Z,14.90
2023-01-18T06:51:03.420Z,19.42
2023-01-18T06:53:38.043Z,14.80
2023-01-18T06:56:14.395Z,13.10
2023-01-18T06:58:48.021Z,13.75
2023-01-18T07:01:21.629Z,14.98
2023-01-18T07:03:56.362Z,16.52
2023-01-18T07:06:29.850Z,16.75
2023-01-18T07:09:06.463Z,19.33
2023-01-18T07:11:43.427Z,19.23
2023-01-18T07:14:16.960Z,14.38
2023-01-18T07:16:50.525Z,18.05
2023-01-18T07:19:24.086Z,16.75
2023-01-18T07:21:58.724Z,14.70
2023-01-18T07:24:32.304Z,13.90
2023-01-18T07:27:07.291Z,14.98
2023-01-18T07:29:40.856Z,15.85
2023-01-18T07:32:14.749Z,38.50
2023-01-18T07:34:48.417Z,25.25
2023-01-18T07:37:21.887Z,23.15
2023-01-18T07:39:55.652Z,25.42
2023-01-18T07:42:30.533Z,22.10
2023-01-18T07:45:08.770Z,23.80
2023-01-18T07:47:42.692Z,24.10
2023-01-18T07:50:16.758Z,28.48
2023-01-18T07:52:50.374Z,29.92
2023-01-18T07:55:23.845Z,29.33
2023-01-18T07:57:58.716Z,28.80
2023-01-18T08:00:32.112Z,25.38
2023-01-18T08:03:06.054Z,19.70
2023-01-18T08:05:39.957Z,25.75
2023-01-18T08:08:14.975Z,21.63
2023-01-18T08:10:48.465Z,23.88
2023-01-18T08:13:23.581Z,22.75
2023-01-18T08:16:01.407Z,31.38
2023-01-18T08:18:35.058Z,29.38
2023-01-18T08:21:11.114Z,24.98
2023-01-18T08:23:45.011Z,30.40
2023-01-18T08:26:18.534Z,29.00
2023-01-18T08:28:53.471Z,27.83
2023-01-18T08:31:27.072Z,29.77
2023-01-18T08:34:01.730Z,30.80
2023-01-18T08:36:35.258Z,27.15
2023-01-18T08:39:08.818Z,24.73
2023-01-18T08:41:42.521Z,39.92
2023-01-18T08:44:17.495Z,23.13
2023-01-18T08:46:51.250Z,28.15
2023-01-18T08:49:24.775Z,27.80
2023-01-18T08:51:58.403Z,31.77
2023-01-18T08:54:31.940Z,12.00
2023-01-18T08:57:05.657Z,7.25
2023-01-18T08:59:40.566Z,6.15
2023-01-18T09:02:14.274Z,3.55
2023-01-18T09:04:48.665Z,3.25
2023-01-18T09:07:22.124Z,2.78
2023-01-18T09:09:55.633Z,2.58
2023-01-18T09:12:29.388Z,1.80
2023-01-18T09:15:04.606Z,3.08
2023-01-18T09:17:38.160Z,6.32
2023-01-18T09:20:12.756Z,6.47
2023-01-18T09:22:47.974Z,7.85
2023-01-18T09:25:21.634Z,4.05
2023-01-18T09:27:55.248Z,8.05
2023-01-18T09:30:30.232Z,6.07
2023-01-18T09:33:03.701Z,5.28
2023-01-18T09:35:37.201Z,5.32
2023-01-18T09:38:12.426Z,5.03
2023-01-18T09:40:47.484Z,5.55
2023-01-18T09:43:29.414Z,4.70
2023-01-18T09:46:04.776Z,6.47
2023-01-18T09:48:39.774Z,9.50
2023-01-18T09:51:20.801Z,9.57
2023-01-18T09:54:12.855Z,9.65
2023-01-18T09:56:52.858Z,13.18
2023-01-18T09:59:33.307Z,7.13
2023-01-18T10:02:19.954Z,4.15
2023-01-18T10:04:57.912Z,2.17
2023-01-18T10:07:36.370Z,2.38
2023-01-18T10:10:19.204Z,2.47
2023-01-18T10:12:58.055Z,1.50
2023-01-18T10:15:36.542Z,2.45
2023-01-18T10:18:11.725Z,1.52
2023-01-18T10:20:49.304Z,1.33
2023-01-18T10:23:29.234Z,1.35
2023-01-18T10:26:07.555Z,1.50
2023-01-18T10:28:51.059Z,1.45
2023-01-18T10:31:39.430Z,1.88
2023-01-18T10:34:20.465Z,1.70
2023-01-18T10:36:58.386Z,2.38
2023-01-18T10:39:37.019Z,2.30
2023-01-18T10:42:18.935Z,1.83
2023-01-18T10:44:53.109Z,3.07
2023-01-18T10:47:26.771Z,2.40
2023-01-18T10:50:01.683Z,1.75
2023-01-18T10:52:35.164Z,2.33
2023-01-18T10:55:14.734Z,1.73
2023-01-18T10:57:50.126Z,2.38
2023-01-18T11:00:27.816Z,1.80
2023-01-18T11:03:03.590Z,2.75
2023-01-18T11:05:40.601Z,3.63
2023-01-18T11:08:21.731Z,1.60
2023-01-18T11:11:03.397Z,2.42
2023-01-18T11:13:43.572Z,2.20
2023-01-18T11:16:19.075Z,1.50
2023-01-18T11:19:03.779Z,1.63
2023-01-18T11:21:51.680Z,2.20
2023-01-18T11:24:29.139Z,2.95
2023-01-18T11:27:04.948Z,2.10
2023-01-18T11:29:43.784Z,1.83
2023-01-18T11:32:24.104Z,1.20
2023-01-18T11:35:00.149Z,1.23
2023-01-18T11:37:37.151Z,2.33
2023-01-18T11:40:35.213Z,1.67
2023-01-18T11:43:17.007Z,0.85
2023-01-18T11:45:55.293Z,1.40
2023-01-18T11:48:33.085Z,1.13
2023-01-18T11:51:11.609Z,1.00
2023-01-18T11:53:57.598Z,1.23
2023-01-18T11:56:39.474Z,0.77
2023-01-18T11:59:16.070Z,0.60
2023-01-18T12:02:09.536Z,0.88
2023-01-18T12:05:02.204Z,1.13
2023-01-18T12:07:45.783Z,0.80
2023-01-18T12:10:23.657Z,1.00
2023-01-18T12:13:11.242Z,0.70
2023-01-18T12:16:01.034Z,1.00
2023-01-18T12:19:05.262Z,0.80
2023-01-18T12:21:50.042Z,0.60
2023-01-18T12:24:35.854Z,0.70
2023-01-18T12:27:20.629Z,0.80
2023-01-18T12:30:26.284Z,0.75
2023-01-18T12:33:34.395Z,0.70
2023-01-18T12:36:39.152Z,0.30
2023-01-18T12:39:24.023Z,0.80
2023-01-18T12:42:01.932Z,0.68
2023-01-18T12:44:48.416Z,0.80
2023-01-18T12:47:35.159Z,0.55
2023-01-18T12:50:23.695Z,0.60
2023-01-18T12:53:01.301Z,0.63
2023-01-18T12:55:37.048Z,1.02
2023-01-18T12:58:15.501Z,1.10
2023-01-18T13:00:55.012Z,0.47
2023-01-18T13:03:35.887Z,0.80
2023-01-18T13:06:11.525Z,0.95
2023-01-18T13:08:49.537Z,0.65
2023-01-18T13:11:26.926Z,1.08
2023-01-18T13:14:10.367Z,1.08
2023-01-18T13:16:51.556Z,0.68
2023-01-18T13:19:29.554Z,1.00
2023-01-18T13:22:13.959Z,0.75
2023-01-18T13:24:58.103Z,1.13
2023-01-18T13:27:32.872Z,1.45
2023-01-18T13:30:16.768Z,1.20
2023-01-18T13:32:52.455Z,1.20
2023-01-18T13:35:33.316Z,0.70
2023-01-18T13:38:12.647Z,1.00
2023-01-18T13:40:55.301Z,1.30
2023-01-18T13:46:21.655Z,1.42
2023-01-18T13:48:58.194Z,1.92
2023-01-18T13:51:54.166Z,1.40
2023-01-18T13:55:02.464Z,1.75
2023-01-18T13:57:37.195Z,1.42
2023-01-18T14:00:25.085Z,1.20
2023-01-18T14:03:05.745Z,1.23
2023-01-18T14:05:45.842Z,1.13
2023-01-18T14:08:21.897Z,1.05
2023-01-18T14:11:00.935Z,1.00
2023-01-18T14:14:04.183Z,1.20
2023-01-18T14:16:53.557Z,1.42
2023-01-18T14:19:28.636Z,1.20
2023-01-18T14:22:19.467Z,1.15
2023-01-18T14:25:11.821Z,0.90
2023-01-18T14:27:48.546Z,1.10
2023-01-18T14:30:28.170Z,1.15
2023-01-18T14:33:07.642Z,3.95
2023-01-18T14:35:53.160Z,2.50
2023-01-18T14:38:28.838Z,2.08
2023-01-18T14:41:07.104Z,14.27
2023-01-18T14:43:45.189Z,5.03
2023-01-18T14:46:25.405Z,2.28
2023-01-18T14:49:01.724Z,1.55
2023-01-18T14:51:35.472Z,1.27
2023-01-18T14:54:18.722Z,0.73
2023-01-18T14:56:52.236Z,1.00
2023-01-18T14:59:27.800Z,0.95
2023-01-18T15:02:02.780Z,1.02
2023-01-18T15:04:40.175Z,1.05
2023-01-18T15:07:19.257Z,0.77
2023-01-18T15:09:54.808Z,0.75
2023-01-18T15:12:33.386Z,0.80
2023-01-18T15:15:10.119Z,1.15
2023-01-18T15:17:44.623Z,2.45
2023-01-18T15:20:19.248Z,4.18
2023-01-18T15:22:54.978Z,2.92
2023-01-18T15:25:33.200Z,6.00
2023-01-18T15:28:22.625Z,3.05
2023-01-18T15:30:57.682Z,1.27
2023-01-18T15:33:33.387Z,2.55
2023-01-18T15:36:09.764Z,5.95
2023-01-18T15:38:43.398Z,3.00
2023-01-18T15:41:18.671Z,2.92
2023-01-18T15:43:53.177Z,2.92
2023-01-18T15:46:28.966Z,3.15
2023-01-18T15:49:02.906Z,3.45
2023-01-18T15:51:57.606Z,2.58
2023-01-18T15:54:32.401Z,4.00
2023-01-18T15:57:15.954Z,5.70
2023-01-18T15:59:49.853Z,3.72
2023-01-18T16:02:24.497Z,4.63
2023-01-18T16:05:10.682Z,3.92
2023-01-18T16:07:44.225Z,3.88
2023-01-18T16:10:30.502Z,4.03
2023-01-18T16:13:31.118Z,4.70
2023-01-18T16:16:16.145Z,6.25
2023-01-18T16:18:59.697Z,5.10
2023-01-18T16:21:42.290Z,6.13
2023-01-18T16:24:35.470Z,9.02
2023-01-18T16:27:11.545Z,7.47
2023-01-18T16:29:48.631Z,9.77
2023-01-18T16:32:33.937Z,11.45
2023-01-18T16:35:14.800Z,12.15
2023-01-18T16:37:49.016Z,15.57
2023-01-18T16:40:24.737Z,11.75
2023-01-18T16:43:01.702Z,8.95
2023-01-18T16:45:38.719Z,12.13
2023-01-18T16:48:17.036Z,12.52
2023-01-18T16:50:51.882Z,10.85
2023-01-18T16:53:25.465Z,12.13
2023-01-18T16:55:59.126Z,9.00
2023-01-18T16:58:34.125Z,10.75
2023-01-18T17:01:13.933Z,14.98
2023-01-18T17:03:48.706Z,13.95
2023-01-18T17:06:24.363Z,12.95
2023-01-18T17:08:57.839Z,19.13
2023-01-18T17:11:31.525Z,11.55
2023-01-18T17:14:04.967Z,15.02
2023-01-18T17:16:40.597Z,14.38
2023-01-18T17:19:15.405Z,12.63
2023-01-18T17:21:50.345Z,9.35
2023-01-18T17:24:25.478Z,13.05
2023-01-18T17:26:58.984Z,12.35
2023-01-18T17:29:32.696Z,14.23
2023-01-18T17:32:08.151Z,12.43
2023-01-18T17:34:42.000Z,20.75
2023-01-18T17:37:15.477Z,22.40
2023-01-18T17:40:02.424Z,18.42
2023-01-18T17:42:36.717Z,22.58
2023-01-18T17:45:14.689Z,24.73
2023-01-18T17:47:49.583Z,31.52
2023-01-18T17:50:25.036Z,35.47
2023-01-18T17:52:59.034Z,26.75
2023-01-18T17:55:35.115Z,22.50
2023-01-18T17:58:08.832Z,45.58
2023-01-18T18:00:42.618Z,42.83
2023-01-18T18:03:20.701Z,38.78
2023-01-18T18:05:59.583Z,24.00
2023-01-18T18:08:33.680Z,42.20
2023-01-18T18:11:09.114Z,74.32
2023-01-18T18:13:43.446Z,48.42
2023-01-18T18:16:18.725Z,46.17
2023-01-18T18:18:54.502Z,36.03
2023-01-18T18:21:29.154Z,28.27
2023-01-18T18:24:02.652Z,41.42
2023-01-18T18:26:36.149Z,35.05
2023-01-18T18:29:09.969Z,31.92
2023-01-18T18:31:44.007Z,32.45
2023-01-18T18:34:19.192Z,40.92
2023-01-18T18:36:52.680Z,48.17
2023-01-18T18:39:26.198Z,63.90
2023-01-18T18:42:00.354Z,65.22
2023-01-18T18:44:34.050Z,53.53
2023-01-18T18:47:10.051Z,48.05
2023-01-18T18:49:45.054Z,74.15
2023-01-18T18:52:18.617Z,86.07
2023-01-18T18:54:52.713Z,80.60
2023-01-18T18:57:27.272Z,93.28
2023-01-18T19:00:00.945Z,82.95
2023-01-18T19:02:34.858Z,75.22
2023-01-18T19:05:12.116Z,74.05
2023-01-18T19:07:47.118Z,64.97
2023-01-18T19:10:21.398Z,53.97
2023-01-18T19:12:55.091Z,66.13
2023-01-18T19:15:28.920Z,64.07
2023-01-18T19:18:02.522Z,64.18
2023-01-18T19:20:39.271Z,72.00
2023-01-18T19:23:13.051Z,55.85
2023-01-18T19:25:48.186Z,62.33
2023-01-18T19:28:21.977Z,58.55
2023-01-18T19:31:02.430Z,67.43
2023-01-18T19:33:36.822Z,79.57
2023-01-18T19:36:14.389Z,87.65
2023-01-18T19:38:57.709Z,86.00
2023-01-18T19:41:33.925Z,57.95
2023-01-18T19:44:07.655Z,55.92
2023-01-18T19:46:42.652Z,65.25
2023-01-18T19:49:20.065Z,72.47
2023-01-18T19:51:55.974Z,59.60
2023-01-18T19:54:29.610Z,62.30
2023-01-18T19:57:03.152Z,72.68
2023-01-18T19:59:36.752Z,64.22
2023-01-18T20:02:11.694Z,54.30
2023-01-18T20:04:45.344Z,45.20
2023-01-18T20:07:20.617Z,42.25
2023-01-18T20:09:54.193Z,32.45
2023-01-18T20:12:31.300Z,29.67
2023-01-18T20:15:06.054Z,36.25
2023-01-18T20:17:39.760Z,138.57
2023-01-18T20:20:20.968Z,63.33
2023-01-18T20:23:04.372Z,52.58
2023-01-18T20:25:37.987Z,94.68
2023-01-18T20:28:11.678Z,80.45
2023-01-18T20:30:49.325Z,69.25
2023-01-18T20:33:23.494Z,64.03
2023-01-18T20:35:57.140Z,61.03
2023-01-18T20:38:34.296Z,57.05
2023-01-18T20:41:09.175Z,60.58
2023-01-18T20:43:42.856Z,49.08
2023-01-18T20:46:16.823Z,50.40
2023-01-18T20:48:50.766Z,97.45
2023-01-18T20:51:24.372Z,106.30
2023-01-18T20:53:59.340Z,63.40
2023-01-18T20:56:32.844Z,48.22
2023-01-18T20:59:06.355Z,51.08
2023-01-18T21:01:40.248Z,44.55
2023-01-18T21:04:13.874Z,45.25
2023-01-18T21:06:49.895Z,47.90
2023-01-18T21:09:25.020Z,55.33
2023-01-18T21:11:58.576Z,55.08
2023-01-18T21:14:32.076Z,43.90
2023-01-18T21:17:06.133Z,41.22
2023-01-18T21:19:39.605Z,39.00
2023-01-18T21:22:13.233Z,39.42
2023-01-18T21:24:48.551Z,28.73
2023-01-18T21:27:26.636Z,34.00
2023-01-18T21:30:00.122Z,41.00
2023-01-18T21:32:33.686Z,55.70
2023-01-18T21:35:08.430Z,51.85
2023-01-18T21:37:42.576Z,64.40
2023-01-18T21:40:17.621Z,57.47
2023-01-18T21:43:08.631Z,61.55
2023-01-18T21:45:57.506Z,60.70
2023-01-18T21:48:31.988Z,55.88
2023-01-18T21:51:23.816Z,62.72
2023-01-18T21:54:14.469Z,34.53
2023-01-18T21:56:51.029Z,42.03
2023-01-18T21:59:24.525Z,44.80
2023-01-18T22:01:58.094Z,48.15
2023-01-18T22:04:49.212Z,55.22
2023-01-18T22:07:23.253Z,45.55
2023-01-18T22:10:04.450Z,47.33
2023-01-18T22:15:14.236Z,41.58
2023-01-18T22:17:47.713Z,40.67
2023-01-18T22:20:21.293Z,46.33
2023-01-18T22:22:56.019Z,43.13
2023-01-18T22:25:29.679Z,43.45
2023-01-18T22:28:04.999Z,36.88
2023-01-18T22:30:38.451Z,48.55
2023-01-18T22:33:12.270Z,40.13
2023-01-18T22:35:45.752Z,34.25
2023-01-18T22:38:19.359Z,41.22
2023-01-18T22:41:02.509Z,43.70
2023-01-18T22:43:38.156Z,41.58
2023-01-18T22:46:14.043Z,41.05
2023-01-18T22:48:48.446Z,37.53
2023-01-18T22:51:23.625Z,41.95
2023-01-18T22:53:57.625Z,48.45
2023-01-18T22:56:31.138Z,40.47
2023-01-18T22:59:06.218Z,42.83
2023-01-18T23:01:39.735Z,39.78
2023-01-18T23:04:13.597Z,38.80
2023-01-18T23:06:48.016Z,41.38
2023-01-18T23:09:21.661Z,40.72
2023-01-18T23:11:55.317Z,40.15
2023-01-18T23:14:47.505Z,45.67
2023-01-18T23:17:38.502Z,49.35
2023-01-18T23:20:16.120Z,47.17
2023-01-18T23:22:49.775Z,43.63
2023-01-18T23:25:23.414Z,40.80
2023-01-18T23:28:03.410Z,46.13
2023-01-18T23:30:38.415Z,36.72
2023-01-18T23:33:11.865Z,36.53
2023-01-18T23:35:45.502Z,36.78
2023-01-18T23:38:18.969Z,41.70
2023-01-18T23:41:09.931Z,32.40
2023-01-18T23:44:01.407Z,34.53
2023-01-18T23:46:53.486Z,39.55
2023-01-18T23:49:44.595Z,30.98
2023-01-18T23:52:35.895Z,32.05
2023-01-18T23:55:10.226Z,28.27
2023-01-18T23:57:44.005Z,36.15
